createdAt,value
2019-01-11T00:02:27.036Z,15.53
2019-01-11T00:04:56.801Z,24.07
2019-01-11T00:07:26.503Z,23.77
2019-01-11T00:09:56.282Z,20.17
2019-01-11T00:12:26.304Z,24.00
2019-01-11T00:14:56.110Z,18.63
2019-01-11T00:17:25.972Z,16.53
2019-01-11T00:19:55.712Z,20.37
2019-01-11T00:22:25.637Z,15.93
2019-01-11T00:24:55.669Z,19.60
2019-01-11T00:27:25.482Z,19.60
2019-01-11T00:29:55.408Z,20.03
2019-01-11T00:32:25.316Z,23.77
2019-01-11T00:34:55.202Z,21.13
2019-01-11T00:37:25.317Z,22.57
2019-01-11T00:39:55.243Z,18.60
2019-01-11T00:42:25.189Z,24.17
2019-01-11T00:44:54.911Z,23.03
2019-01-11T00:47:26.637Z,19.60
2019-01-11T00:49:56.410Z,20.70
2019-01-11T00:52:26.199Z,19.15
2019-01-11T00:54:56.038Z,19.77
2019-01-11T00:57:27.794Z,16.37
2019-01-11T00:59:57.724Z,20.10
2019-01-11T01:02:27.641Z,18.30
2019-01-11T01:04:57.555Z,20.70
2019-01-11T01:07:27.486Z,15.17
2019-01-11T01:09:57.316Z,14.50
2019-01-11T01:12:27.135Z,16.90
2019-01-11T01:14:57.016Z,13.13
2019-01-11T01:17:26.894Z,15.00
2019-01-11T01:19:56.677Z,14.80
2019-01-11T01:22:26.502Z,11.80
2019-01-11T01:24:56.970Z,12.70
2019-01-11T01:27:26.773Z,12.90
2019-01-11T01:29:56.580Z,11.25
2019-01-11T01:32:26.532Z,16.47
2019-01-11T01:34:56.545Z,10.70
2019-01-11T01:37:26.234Z,11.53
2019-01-11T01:39:56.174Z,9.60
2019-01-11T01:42:26.056Z,11.80
2019-01-11T01:44:55.733Z,8.57
2019-01-11T01:47:26.181Z,10.78
2019-01-11T01:49:56.155Z,9.90
2019-01-11T01:52:25.846Z,11.83
2019-01-11T01:54:55.581Z,10.63
2019-01-11T01:57:25.505Z,10.80
2019-01-11T01:59:55.663Z,10.60
2019-01-11T02:02:25.397Z,8.77
2019-01-11T02:04:55.821Z,7.03
2019-01-11T02:07:25.666Z,6.93
2019-01-11T02:09:55.486Z,7.43
2019-01-11T02:12:25.461Z,7.05
2019-01-11T02:14:55.628Z,6.60
2019-01-11T02:17:25.527Z,6.50
2019-01-11T02:19:55.411Z,7.47
2019-01-11T02:22:25.280Z,7.10
2019-01-11T02:24:55.140Z,8.17
2019-01-11T02:27:24.949Z,6.20
2019-01-11T02:29:54.685Z,7.90
2019-01-11T02:32:24.483Z,6.17
2019-01-11T02:34:54.822Z,6.90
2019-01-11T02:37:24.645Z,6.50
2019-01-11T02:39:54.602Z,7.73
2019-01-11T02:42:24.359Z,7.87
2019-01-11T02:44:54.124Z,6.10
2019-01-11T02:47:23.920Z,6.17
2019-01-11T02:49:55.026Z,9.53
2019-01-11T02:52:24.918Z,10.20
2019-01-11T02:54:54.741Z,7.47
2019-01-11T02:57:24.489Z,10.70
2019-01-11T02:59:54.414Z,10.03
2019-01-11T03:02:24.310Z,11.20
2019-01-11T03:04:54.784Z,8.23
2019-01-11T03:07:24.660Z,8.50
2019-01-11T03:09:54.861Z,8.47
2019-01-11T03:12:24.622Z,8.13
2019-01-11T03:14:54.732Z,10.07
2019-01-11T03:17:24.574Z,8.20
2019-01-11T03:19:54.402Z,9.20
2019-01-11T03:22:24.215Z,8.07
2019-01-11T03:24:53.958Z,7.60
2019-01-11T03:27:23.684Z,7.60
2019-01-11T03:29:53.385Z,6.63
2019-01-11T03:32:23.205Z,6.27
2019-01-11T03:35:15.289Z,6.57
2019-01-11T03:37:47.046Z,6.47
2019-01-11T03:40:18.700Z,6.87
2019-01-11T03:42:48.571Z,7.63
2019-01-11T03:45:19.520Z,8.10
2019-01-11T03:47:49.373Z,7.20
2019-01-11T03:50:19.476Z,6.87
2019-01-11T03:52:49.426Z,7.53
2019-01-11T03:55:20.359Z,8.53
2019-01-11T03:57:50.339Z,7.00
2019-01-11T04:00:24.558Z,7.20
2019-01-11T04:02:54.389Z,8.05
2019-01-11T04:05:24.077Z,8.03
2019-01-11T04:07:53.822Z,8.77
2019-01-11T04:10:24.428Z,8.30
2019-01-11T04:12:54.514Z,9.70
2019-01-11T04:15:24.495Z,9.00
2019-01-11T04:18:22.734Z,8.03
2019-01-11T04:20:53.023Z,8.53
2019-01-11T04:23:22.818Z,9.00
2019-01-11T04:25:52.645Z,7.23
2019-01-11T04:28:22.862Z,9.00
2019-01-11T04:30:52.783Z,7.97
2019-01-11T04:33:22.791Z,9.03
2019-01-11T04:35:52.585Z,8.97
2019-01-11T04:38:22.483Z,7.93
2019-01-11T04:40:52.223Z,7.10
2019-01-11T04:43:22.302Z,8.47
2019-01-11T04:45:52.064Z,9.03
2019-01-11T04:48:21.865Z,9.43
2019-01-11T04:50:51.761Z,9.53
2019-01-11T04:53:21.668Z,7.83
2019-01-11T04:55:51.651Z,9.20
2019-01-11T04:58:21.502Z,8.13
2019-01-11T05:00:51.372Z,9.65
2019-01-11T05:03:21.278Z,8.27
2019-01-11T05:05:51.278Z,11.40
2019-01-11T05:08:21.107Z,7.90
2019-01-11T05:10:50.954Z,8.68
2019-01-11T05:13:37.569Z,10.90
2019-01-11T05:16:07.641Z,8.17
2019-01-11T05:18:37.536Z,8.83
2019-01-11T05:21:07.437Z,9.73
2019-01-11T05:23:37.384Z,8.43
2019-01-11T05:26:07.253Z,10.33
2019-01-11T05:28:36.996Z,9.05
2019-01-11T05:31:06.905Z,9.57
2019-01-11T05:33:36.669Z,9.40
2019-01-11T05:36:06.485Z,10.33
2019-01-11T05:38:36.238Z,9.17
2019-01-11T05:41:06.138Z,12.07
2019-01-11T05:43:35.908Z,9.70
2019-01-11T05:46:06.073Z,12.00
2019-01-11T05:48:36.156Z,11.63
2019-01-11T05:51:06.014Z,9.53
2019-01-11T05:53:35.699Z,8.50
2019-01-11T05:56:09.300Z,11.63
2019-01-11T05:58:44.834Z,10.37
2019-01-11T06:01:15.401Z,9.03
2019-01-11T06:03:45.339Z,7.93
2019-01-11T06:06:15.241Z,9.47
2019-01-11T06:08:44.983Z,9.57
2019-01-11T06:11:14.722Z,9.00
2019-01-11T06:13:44.577Z,13.97
2019-01-11T06:16:14.345Z,10.03
2019-01-11T06:18:44.166Z,21.10
2019-01-11T06:21:14.959Z,18.80
2019-01-11T06:23:44.951Z,11.40
2019-01-11T06:26:14.704Z,9.80
2019-01-11T06:28:44.407Z,12.33
2019-01-11T06:31:14.437Z,12.23
2019-01-11T06:33:44.273Z,11.20
2019-01-11T06:36:14.079Z,12.03
2019-01-11T06:38:43.911Z,11.57
2019-01-11T06:41:13.713Z,12.50
2019-01-11T06:43:44.993Z,11.27
2019-01-11T06:46:15.358Z,13.03
2019-01-11T06:48:45.235Z,14.30
2019-01-11T06:51:15.063Z,13.90
2019-01-11T06:53:44.872Z,12.70
2019-01-11T06:56:14.563Z,11.43
2019-01-11T06:58:44.446Z,13.73
2019-01-11T07:01:14.391Z,18.80
2019-01-11T07:03:44.303Z,13.33
2019-01-11T07:06:14.157Z,13.83
2019-01-11T07:08:44.024Z,15.10
2019-01-11T07:11:13.845Z,11.97
2019-01-11T07:13:43.655Z,14.60
2019-01-11T07:16:13.794Z,13.83
2019-01-11T07:18:43.768Z,13.37
2019-01-11T07:21:13.595Z,12.23
2019-01-11T07:23:43.571Z,13.80
2019-01-11T07:26:15.053Z,13.17
2019-01-11T07:28:44.969Z,12.20
2019-01-11T07:31:16.781Z,13.77
2019-01-11T07:33:46.772Z,13.60
2019-01-11T07:36:34.427Z,14.13
2019-01-11T07:39:11.944Z,15.03
2019-01-11T07:41:41.804Z,11.53
2019-01-11T07:44:11.767Z,15.25
2019-01-11T07:46:43.291Z,11.30
2019-01-11T07:49:13.164Z,13.90
2019-01-11T07:51:43.191Z,14.57
2019-01-11T07:54:13.203Z,16.93
2019-01-11T07:56:43.286Z,17.17
2019-01-11T07:59:13.947Z,14.67
2019-01-11T08:01:43.854Z,13.73
2019-01-11T08:04:13.784Z,17.60
2019-01-11T08:06:43.691Z,13.80
2019-01-11T08:09:13.594Z,16.10
2019-01-11T08:11:43.443Z,14.87
2019-01-11T08:14:13.347Z,18.93
2019-01-11T08:16:43.367Z,18.50
2019-01-11T08:19:14.988Z,15.05
2019-01-11T08:21:44.925Z,16.43
2019-01-11T08:24:14.661Z,20.00
2019-01-11T08:26:44.644Z,16.30
2019-01-11T08:29:15.007Z,17.07
2019-01-11T08:31:44.712Z,17.00
2019-01-11T08:34:14.495Z,19.70
2019-01-11T08:36:44.390Z,20.03
2019-01-11T08:39:14.256Z,17.93
2019-01-11T08:41:51.270Z,17.57
2019-01-11T08:44:21.130Z,17.30
2019-01-11T08:46:50.875Z,15.63
2019-01-11T08:49:21.695Z,18.73
2019-01-11T08:51:51.763Z,19.20
2019-01-11T08:54:21.581Z,23.33
2019-01-11T08:56:51.703Z,20.70
2019-01-11T08:59:22.049Z,19.07
2019-01-11T09:01:51.840Z,23.23
2019-01-11T09:04:21.995Z,19.40
2019-01-11T09:06:51.741Z,22.80
2019-01-11T09:09:21.430Z,22.43
2019-01-11T09:11:51.351Z,19.57
2019-01-11T09:14:38.965Z,21.30
2019-01-11T09:17:08.789Z,21.80
2019-01-11T09:19:38.555Z,18.67
2019-01-11T09:22:08.474Z,21.93
2019-01-11T09:24:38.405Z,23.57
2019-01-11T09:27:09.927Z,19.50
2019-01-11T09:29:39.738Z,20.17
2019-01-11T09:32:09.545Z,21.33
2019-01-11T09:34:39.473Z,25.23
2019-01-11T09:37:09.213Z,23.17
2019-01-11T09:39:39.958Z,24.95
2019-01-11T09:42:10.001Z,24.57
2019-01-11T09:44:40.335Z,25.00
2019-01-11T09:47:10.302Z,23.53
2019-01-11T09:49:40.333Z,24.73
2019-01-11T09:52:10.294Z,21.33
2019-01-11T09:54:40.379Z,26.00
2019-01-11T09:57:10.249Z,29.80
2019-01-11T09:59:40.217Z,25.90
2019-01-11T10:02:26.655Z,28.83
2019-01-11T10:04:58.436Z,23.80
2019-01-11T10:07:29.520Z,25.57
2019-01-11T10:09:59.323Z,28.43
2019-01-11T10:12:30.201Z,24.80
2019-01-11T10:15:01.021Z,30.30
2019-01-11T10:17:31.178Z,26.83
2019-01-11T10:20:01.081Z,23.50
2019-01-11T10:22:30.941Z,26.53
2019-01-11T10:25:00.677Z,28.80
2019-01-11T10:27:30.438Z,29.30
2019-01-11T10:30:00.197Z,28.87
2019-01-11T10:32:30.000Z,29.05
2019-01-11T10:34:59.792Z,30.17
2019-01-11T10:37:30.149Z,30.53
2019-01-11T10:40:00.210Z,33.58
2019-01-11T10:42:31.180Z,31.93
2019-01-11T10:45:01.063Z,34.13
2019-01-11T10:47:30.930Z,36.13
2019-01-11T10:50:00.677Z,37.30
2019-01-11T10:52:30.628Z,40.63
2019-01-11T10:55:00.751Z,36.00
2019-01-11T10:57:30.536Z,41.47
2019-01-11T11:00:00.339Z,41.07
2019-01-11T11:02:30.143Z,37.20
2019-01-11T11:04:59.986Z,39.17
2019-01-11T11:07:30.198Z,40.08
2019-01-11T11:10:00.817Z,43.93
2019-01-11T11:12:30.800Z,37.30
2019-01-11T11:15:01.108Z,41.77
2019-01-11T11:17:31.701Z,44.53
2019-01-11T11:20:01.537Z,48.70
2019-01-11T11:22:31.499Z,42.50
2019-01-11T11:25:01.329Z,45.00
2019-01-11T11:27:31.485Z,44.80
2019-01-11T11:30:01.296Z,45.03
2019-01-11T11:32:49.045Z,39.60
2019-01-11T11:35:19.778Z,44.13
2019-01-11T11:37:49.696Z,51.87
2019-01-11T11:40:19.672Z,43.97
2019-01-11T11:42:49.684Z,44.43
2019-01-11T11:45:20.373Z,43.93
2019-01-11T11:47:50.394Z,41.60
2019-01-11T11:50:20.510Z,44.90
2019-01-11T11:52:50.320Z,44.30
2019-01-11T11:55:20.181Z,48.33
2019-01-11T11:57:49.957Z,46.43
2019-01-11T12:00:26.291Z,43.63
2019-01-11T12:02:57.140Z,44.67
2019-01-11T12:05:27.040Z,47.67
2019-01-11T12:07:57.004Z,51.87
2019-01-11T12:10:26.880Z,48.73
2019-01-11T12:12:57.781Z,46.83
2019-01-11T12:15:27.525Z,41.63
2019-01-11T12:17:57.472Z,44.37
2019-01-11T12:20:32.644Z,51.53
2019-01-11T12:23:02.451Z,47.63
2019-01-11T12:25:33.458Z,43.93
2019-01-11T12:28:03.201Z,47.43
2019-01-11T12:30:33.505Z,41.50
2019-01-11T12:33:03.682Z,45.00
2019-01-11T12:35:33.609Z,47.73
2019-01-11T12:38:03.565Z,42.43
2019-01-11T12:40:33.705Z,43.30
2019-01-11T12:43:03.651Z,40.93
2019-01-11T12:45:33.837Z,45.77
2019-01-11T12:48:03.651Z,40.63
2019-01-11T12:50:33.449Z,42.47
2019-01-11T12:53:03.408Z,42.50
2019-01-11T12:55:33.631Z,40.23
2019-01-11T12:58:03.545Z,37.03
2019-01-11T13:00:33.513Z,39.97
2019-01-11T13:03:03.366Z,42.35
2019-01-11T13:05:33.873Z,42.47
2019-01-11T13:08:03.707Z,42.97
2019-01-11T13:10:33.586Z,44.47
2019-01-11T13:13:03.300Z,43.50
2019-01-11T13:15:33.216Z,39.97
2019-01-11T13:18:03.093Z,49.30
2019-01-11T13:20:33.013Z,43.67
2019-01-11T13:23:03.927Z,38.30
2019-01-11T13:25:33.821Z,55.10
2019-01-11T13:28:03.997Z,39.10
2019-01-11T13:30:34.011Z,36.20
2019-01-11T13:33:04.133Z,39.03
2019-01-11T13:35:37.591Z,47.07
2019-01-11T13:38:07.511Z,38.07
2019-01-11T13:40:37.253Z,39.43
2019-01-11T13:43:11.273Z,38.93
2019-01-11T13:45:41.232Z,33.00
2019-01-11T13:48:11.280Z,33.10
2019-01-11T13:50:42.538Z,35.20
2019-01-11T13:53:17.258Z,31.40
2019-01-11T13:55:47.246Z,33.83
2019-01-11T13:58:17.906Z,29.37
2019-01-11T14:00:48.809Z,27.10
2019-01-11T14:03:18.665Z,28.83
2019-01-11T14:05:48.685Z,27.73
2019-01-11T14:08:18.868Z,27.10
2019-01-11T14:10:48.914Z,26.10
2019-01-11T14:13:18.709Z,25.20
2019-01-11T14:15:48.947Z,30.53
2019-01-11T14:18:18.879Z,23.67
2019-01-11T14:20:48.765Z,21.80
2019-01-11T14:23:19.270Z,20.37
2019-01-11T14:25:49.047Z,19.17
2019-01-11T14:28:18.898Z,20.20
2019-01-11T14:30:48.778Z,15.48
2019-01-11T14:33:18.671Z,17.73
2019-01-11T14:35:48.648Z,18.93
2019-01-11T14:38:18.604Z,13.33
2019-01-11T14:40:49.397Z,16.35
2019-01-11T14:43:19.362Z,14.00
2019-01-11T14:45:49.320Z,14.33
2019-01-11T14:48:19.244Z,11.33
2019-01-11T14:50:51.126Z,12.00
2019-01-11T14:53:21.095Z,10.47
2019-01-11T14:55:56.137Z,11.87
2019-01-11T14:58:28.586Z,8.33
2019-01-11T15:00:54.089Z,13.40
2019-01-11T15:03:24.076Z,11.63
2019-01-11T15:05:53.923Z,7.87
2019-01-11T15:08:23.685Z,8.50
2019-01-11T15:10:53.711Z,14.10
2019-01-11T15:13:23.604Z,9.90
2019-01-11T15:15:53.605Z,7.77
2019-01-11T15:18:23.510Z,9.10
2019-01-11T15:20:53.358Z,7.30
2019-01-11T15:23:23.602Z,7.87
2019-01-11T15:25:53.423Z,7.97
2019-01-11T15:28:23.992Z,9.48
2019-01-11T15:30:53.913Z,11.40
2019-01-11T15:33:23.946Z,8.47
2019-01-11T15:35:53.886Z,9.75
2019-01-11T15:38:24.769Z,7.40
2019-01-11T15:40:54.556Z,6.67
2019-01-11T15:43:24.399Z,5.70
2019-01-11T15:46:03.284Z,8.08
2019-01-11T15:48:49.904Z,6.47
2019-01-11T15:51:26.789Z,5.80
2019-01-11T15:53:57.604Z,6.97
2019-01-11T15:56:28.347Z,5.40
2019-01-11T15:58:58.244Z,5.07
2019-01-11T16:01:28.433Z,5.47
2019-01-11T16:03:58.480Z,5.15
2019-01-11T16:06:34.758Z,4.67
2019-01-11T16:10:00.769Z,4.87
2019-01-11T16:12:52.353Z,5.43
2019-01-11T16:15:58.722Z,6.70
2019-01-11T16:18:30.809Z,8.10
2019-01-11T16:21:04.876Z,4.47
2019-01-11T16:23:35.048Z,5.63
2019-01-11T16:26:06.298Z,6.93
2019-01-11T16:28:36.200Z,9.50
2019-01-11T16:31:06.227Z,7.17
2019-01-11T16:33:36.238Z,6.30
2019-01-11T16:36:06.270Z,7.47
2019-01-11T16:38:36.245Z,7.10
2019-01-11T16:41:06.405Z,8.00
2019-01-11T16:43:36.361Z,7.30
2019-01-11T16:46:06.368Z,5.70
2019-01-11T16:48:36.241Z,6.47
2019-01-11T16:51:06.116Z,6.07
2019-01-11T16:53:36.940Z,7.67
2019-01-11T16:56:06.859Z,8.13
2019-01-11T16:58:36.821Z,6.77
2019-01-11T17:01:06.745Z,7.97
2019-01-11T17:03:36.611Z,7.10
2019-01-11T17:06:06.673Z,9.30
2019-01-11T17:08:36.469Z,8.40
2019-01-11T17:11:06.597Z,8.03
2019-01-11T17:13:40.578Z,6.50
2019-01-11T17:16:08.160Z,13.53
2019-01-11T17:18:37.968Z,8.40
2019-01-11T17:21:08.147Z,11.10
2019-01-11T17:23:38.005Z,10.93
2019-01-11T17:26:07.840Z,9.10
2019-01-11T17:28:37.632Z,10.43
2019-01-11T17:31:07.501Z,8.53
2019-01-11T17:33:37.400Z,6.58
2019-01-11T17:36:07.685Z,9.30
2019-01-11T17:38:37.701Z,7.07
2019-01-11T17:41:07.568Z,9.20
2019-01-11T17:43:37.457Z,6.10
2019-01-11T17:46:07.407Z,9.90
2019-01-11T17:48:39.088Z,13.00
2019-01-11T17:51:09.378Z,5.53
2019-01-11T17:53:39.158Z,6.13
2019-01-11T17:56:09.361Z,6.15
2019-01-11T17:58:40.465Z,6.63
2019-01-11T18:01:10.381Z,5.53
2019-01-11T18:03:40.300Z,6.37
2019-01-11T18:06:10.342Z,5.97
2019-01-11T18:08:40.695Z,5.58
2019-01-11T18:11:12.461Z,5.40
2019-01-11T18:13:43.191Z,7.63
2019-01-11T18:16:13.231Z,6.60
2019-01-11T18:18:45.183Z,4.77
2019-01-11T18:21:15.116Z,6.47
2019-01-11T18:23:46.262Z,6.30
2019-01-11T18:26:16.232Z,5.50
2019-01-11T18:28:47.536Z,7.33
2019-01-11T18:31:19.319Z,8.43
2019-01-11T18:33:51.100Z,7.07
2019-01-11T18:36:23.813Z,7.10
2019-01-11T18:38:53.670Z,10.40
2019-01-11T18:41:23.566Z,7.37
2019-01-11T18:43:53.659Z,10.57
2019-01-11T18:46:24.474Z,8.73
2019-01-11T18:48:54.307Z,10.57
2019-01-11T18:51:24.119Z,8.45
2019-01-11T18:53:54.054Z,8.23
2019-01-11T18:56:23.942Z,8.95
2019-01-11T18:58:53.999Z,9.40
2019-01-11T19:01:23.924Z,7.50
2019-01-11T19:03:53.700Z,8.00
2019-01-11T19:06:23.803Z,6.00
2019-01-11T19:08:55.077Z,5.57
2019-01-11T19:11:27.840Z,8.13
2019-01-11T19:13:57.799Z,7.73
2019-01-11T19:16:28.070Z,7.60
2019-01-11T19:18:58.083Z,7.05
2019-01-11T19:21:30.325Z,5.57
2019-01-11T19:24:00.961Z,8.93
2019-01-11T19:26:33.983Z,7.77
2019-01-11T19:29:04.485Z,6.03
2019-01-11T19:31:34.983Z,6.75
2019-01-11T19:34:05.097Z,7.33
2019-01-11T19:36:38.025Z,9.73
2019-01-11T19:39:08.972Z,5.13
2019-01-11T19:41:39.191Z,7.23
2019-01-11T19:44:08.993Z,6.93
2019-01-11T19:46:40.031Z,6.77
2019-01-11T19:49:10.007Z,6.93
2019-01-11T19:51:40.211Z,5.83
2019-01-11T19:54:10.106Z,7.33
2019-01-11T19:56:40.052Z,4.83
2019-01-11T19:59:10.050Z,6.70
2019-01-11T20:01:39.882Z,7.60
2019-01-11T20:04:09.788Z,6.87
2019-01-11T20:06:40.074Z,7.60
2019-01-11T20:09:10.455Z,6.80
2019-01-11T20:11:40.729Z,4.87
2019-01-11T20:14:10.679Z,5.53
2019-01-11T20:16:40.458Z,5.20
2019-01-11T20:19:10.459Z,5.17
2019-01-11T20:21:40.377Z,5.40
2019-01-11T20:24:10.301Z,4.00
2019-01-11T20:26:40.107Z,6.00
2019-01-11T20:29:09.980Z,7.53
2019-01-11T20:31:39.879Z,5.27
2019-01-11T20:34:11.774Z,7.63
2019-01-11T20:36:54.178Z,4.73
2019-01-11T20:39:25.138Z,6.00
2019-01-11T20:41:55.809Z,6.73
2019-01-11T20:44:28.824Z,3.87
2019-01-11T20:46:58.832Z,6.00
2019-01-11T20:49:28.652Z,8.10
2019-01-11T20:51:58.488Z,4.08
2019-01-11T20:54:28.510Z,5.63
2019-01-11T20:56:59.341Z,4.63
2019-01-11T20:59:29.617Z,3.73
2019-01-11T21:01:59.514Z,4.77
2019-01-11T21:04:30.444Z,5.30
2019-01-11T21:07:00.291Z,4.80
2019-01-11T21:09:30.078Z,5.37
2019-01-11T21:12:00.041Z,9.10
2019-01-11T21:14:30.071Z,4.23
2019-01-11T21:16:59.877Z,4.90
2019-01-11T21:19:29.826Z,5.90
2019-01-11T21:21:59.873Z,6.30
2019-01-11T21:24:29.697Z,4.67
2019-01-11T21:26:59.676Z,6.00
2019-01-11T21:29:29.557Z,4.57
2019-01-11T21:31:59.470Z,6.17
2019-01-11T21:34:29.305Z,6.83
2019-01-11T21:36:59.479Z,7.83
2019-01-11T21:39:29.259Z,8.13
2019-01-11T21:41:59.150Z,4.97
2019-01-11T21:44:28.889Z,4.10
2019-01-11T21:46:59.810Z,4.93
2019-01-11T21:49:29.668Z,5.00
2019-01-11T21:51:59.728Z,6.90
2019-01-11T21:54:29.543Z,5.30
2019-01-11T21:56:59.465Z,7.58
2019-01-11T21:59:29.293Z,3.70
2019-01-11T22:01:59.200Z,4.97
2019-01-11T22:04:29.006Z,5.60
2019-01-11T22:06:58.963Z,3.40
2019-01-11T22:09:28.919Z,5.37
2019-01-11T22:11:59.227Z,8.63
2019-01-11T22:14:29.162Z,5.17
2019-01-11T22:16:59.186Z,6.07
2019-01-11T22:19:28.970Z,5.07
2019-01-11T22:21:58.787Z,6.00
2019-01-11T22:24:28.629Z,4.30
2019-01-11T22:26:58.633Z,4.33
2019-01-11T22:29:28.636Z,4.50
2019-01-11T22:31:58.532Z,10.20
2019-01-11T22:34:32.327Z,7.50
2019-01-11T22:37:02.192Z,6.83
2019-01-11T22:39:32.414Z,5.70
2019-01-11T22:42:02.575Z,5.30
2019-01-11T22:44:32.375Z,6.03
2019-01-11T22:47:05.826Z,5.00
2019-01-11T22:49:36.741Z,5.73
2019-01-11T22:52:08.014Z,5.03
2019-01-11T22:54:37.861Z,4.90
2019-01-11T22:57:07.905Z,4.40
2019-01-11T22:59:37.693Z,6.60
2019-01-11T23:02:14.155Z,5.08
2019-01-11T23:04:43.881Z,4.83
2019-01-11T23:07:40.843Z,5.93
2019-01-11T23:10:28.738Z,5.00
2019-01-11T23:13:04.869Z,6.00
2019-01-11T23:15:43.575Z,5.37
2019-01-11T23:18:15.684Z,5.23
2019-01-11T23:20:49.376Z,3.42
2019-01-11T23:23:20.252Z,7.77
2019-01-11T23:25:50.249Z,6.33
2019-01-11T23:28:20.025Z,8.03
2019-01-11T23:30:49.937Z,7.37
2019-01-11T23:33:20.742Z,8.13
2019-01-11T23:35:50.632Z,5.73
2019-01-11T23:38:20.526Z,5.97
2019-01-11T23:40:50.453Z,3.43
2019-01-11T23:43:20.747Z,5.00
2019-01-11T23:45:50.694Z,6.57
2019-01-11T23:48:20.500Z,4.83
2019-01-11T23:50:50.304Z,4.00
2019-01-11T23:53:20.127Z,6.40
2019-01-11T23:55:50.016Z,4.90
2019-01-11T23:58:19.718Z,3.70
